Cortlandville, New York
Current Conditions -  °F | °C
As of 10:55 AM on Sunday 23 Nov 2014 (Local Time) from KN03 Reporting Station
Broken Clouds Broken Clouds  
Wind Chill: 45°   Ceiling: 12000
Heat Index: 45°   Visibility: 10mi
Dew Point: 41°   Wind: 0mph
Humidity: 87%   Direction: NA
Pressure: 30.1"   Gusts: NA
Location:  42.5863°N, 76.1831°W
Report Text: KN03 231555Z AUTO 00000KT 10SM SCT055 BKN120 07/05 A3010 RMK AO2
Loading
Personal Weather Stations






























Interactive Weather Map New forecast layout! Learn more

10-Day Weather Forecast

Advertisements
Track Severe Weather on mobile